sensor_id;sensor_type;location;lat;lon;timestamp;P1;durP1;ratioP1;P2;durP2;ratioP2
59336;SDS011;45115;52.002;4.686;2022-08-21T00:00:19;10.82;;;4.55;;
59336;SDS011;45115;52.002;4.686;2022-08-21T00:02:48;8.90;;;4.03;;
59336;SDS011;45115;52.002;4.686;2022-08-21T00:05:16;8.07;;;4.00;;
59336;SDS011;45115;52.002;4.686;2022-08-21T00:07:44;6.70;;;3.80;;
59336;SDS011;45115;52.002;4.686;2022-08-21T00:10:11;9.93;;;4.43;;
59336;SDS011;45115;52.002;4.686;2022-08-21T00:12:38;10.20;;;4.10;;
59336;SDS011;45115;52.002;4.686;2022-08-21T00:15:08;9.77;;;4.18;;
59336;SDS011;45115;52.002;4.686;2022-08-21T00:17:36;8.18;;;4.03;;
59336;SDS011;45115;52.002;4.686;2022-08-21T00:20:04;11.88;;;4.22;;
59336;SDS011;45115;52.002;4.686;2022-08-21T00:22:33;13.13;;;4.73;;
59336;SDS011;45115;52.002;4.686;2022-08-21T00:25:00;11.65;;;4.40;;
59336;SDS011;45115;52.002;4.686;2022-08-21T00:27:27;9.35;;;4.07;;
59336;SDS011;45115;52.002;4.686;2022-08-21T00:29:54;11.73;;;4.63;;
59336;SDS011;45115;52.002;4.686;2022-08-21T00:32:23;10.55;;;4.32;;
59336;SDS011;45115;52.002;4.686;2022-08-21T00:34:51;15.07;;;4.50;;
59336;SDS011;45115;52.002;4.686;2022-08-21T00:37:18;10.25;;;4.18;;
59336;SDS011;45115;52.002;4.686;2022-08-21T00:39:45;10.75;;;4.47;;
59336;SDS011;45115;52.002;4.686;2022-08-21T00:42:12;10.98;;;4.60;;
59336;SDS011;45115;52.002;4.686;2022-08-21T00:44:40;10.45;;;4.30;;
59336;SDS011;45115;52.002;4.686;2022-08-21T00:47:07;10.75;;;4.45;;
59336;SDS011;45115;52.002;4.686;2022-08-21T00:49:36;11.00;;;4.63;;
59336;SDS011;45115;52.002;4.686;2022-08-21T00:52:03;9.60;;;4.25;;
59336;SDS011;45115;52.002;4.686;2022-08-21T00:54:33;12.60;;;5.18;;
59336;SDS011;45115;52.002;4.686;2022-08-21T00:57:00;17.10;;;6.85;;
59336;SDS011;45115;52.002;4.686;2022-08-21T01:01:58;12.50;;;5.38;;
59336;SDS011;45115;52.002;4.686;2022-08-21T01:04:25;10.95;;;4.68;;
59336;SDS011;45115;52.002;4.686;2022-08-21T01:06:53;9.60;;;4.70;;
59336;SDS011;45115;52.002;4.686;2022-08-21T01:09:20;10.32;;;5.22;;
59336;SDS011;45115;52.002;4.686;2022-08-21T01:11:47;10.95;;;5.20;;
59336;SDS011;45115;52.002;4.686;2022-08-21T01:14:14;12.98;;;5.47;;
59336;SDS011;45115;52.002;4.686;2022-08-21T01:16:44;13.40;;;4.70;;
59336;SDS011;45115;52.002;4.686;2022-08-21T01:19:12;10.55;;;5.07;;
59336;SDS011;45115;52.002;4.686;2022-08-21T01:21:41;12.52;;;4.95;;
59336;SDS011;45115;52.002;4.686;2022-08-21T01:24:08;12.68;;;5.47;;
59336;SDS011;45115;52.002;4.686;2022-08-21T01:26:35;12.05;;;5.40;;
59336;SDS011;45115;52.002;4.686;2022-08-21T01:29:03;9.77;;;4.65;;
59336;SDS011;45115;52.002;4.686;2022-08-21T01:31:35;11.07;;;5.45;;
59336;SDS011;45115;52.002;4.686;2022-08-21T01:34:02;10.30;;;5.53;;
59336;SDS011;45115;52.002;4.686;2022-08-21T01:36:29;10.93;;;5.70;;
59336;SDS011;45115;52.002;4.686;2022-08-21T01:38:59;14.95;;;5.80;;
59336;SDS011;45115;52.002;4.686;2022-08-21T01:41:26;17.85;;;6.35;;
59336;SDS011;45115;52.002;4.686;2022-08-21T01:43:52;13.98;;;6.05;;
59336;SDS011;45115;52.002;4.686;2022-08-21T01:46:19;10.77;;;5.80;;
59336;SDS011;45115;52.002;4.686;2022-08-21T01:48:46;14.57;;;5.63;;
59336;SDS011;45115;52.002;4.686;2022-08-21T01:51:12;13.10;;;5.88;;
59336;SDS011;45115;52.002;4.686;2022-08-21T01:53:39;10.93;;;6.05;;
59336;SDS011;45115;52.002;4.686;2022-08-21T01:56:08;15.55;;;6.20;;
59336;SDS011;45115;52.002;4.686;2022-08-21T01:58:39;13.80;;;6.18;;
59336;SDS011;45115;52.002;4.686;2022-08-21T02:01:06;13.73;;;5.90;;
59336;SDS011;45115;52.002;4.686;2022-08-21T02:03:34;12.85;;;5.85;;
59336;SDS011;45115;52.002;4.686;2022-08-21T02:06:01;12.52;;;6.25;;
59336;SDS011;45115;52.002;4.686;2022-08-21T02:08:28;13.63;;;6.53;;
59336;SDS011;45115;52.002;4.686;2022-08-21T02:10:55;15.07;;;6.15;;
59336;SDS011;45115;52.002;4.686;2022-08-21T02:13:23;15.55;;;6.63;;
59336;SDS011;45115;52.002;4.686;2022-08-21T02:15:49;14.98;;;6.10;;
59336;SDS011;45115;52.002;4.686;2022-08-21T02:18:16;12.50;;;6.30;;
59336;SDS011;45115;52.002;4.686;2022-08-21T02:20:44;12.63;;;6.38;;
59336;SDS011;45115;52.002;4.686;2022-08-21T02:23:13;11.07;;;5.82;;
59336;SDS011;45115;52.002;4.686;2022-08-21T02:25:40;16.17;;;6.07;;
59336;SDS011;45115;52.002;4.686;2022-08-21T02:28:08;11.00;;;5.55;;
59336;SDS011;45115;52.002;4.686;2022-08-21T02:30:39;16.45;;;6.00;;
59336;SDS011;45115;52.002;4.686;2022-08-21T02:33:08;16.23;;;5.90;;
59336;SDS011;45115;52.002;4.686;2022-08-21T02:35:36;12.43;;;5.60;;
59336;SDS011;45115;52.002;4.686;2022-08-21T02:38:03;12.25;;;5.50;;
59336;SDS011;45115;52.002;4.686;2022-08-21T02:40:33;12.40;;;4.95;;
59336;SDS011;45115;52.002;4.686;2022-08-21T02:45:31;10.85;;;4.32;;
59336;SDS011;45115;52.002;4.686;2022-08-21T02:48:01;11.27;;;5.13;;
59336;SDS011;45115;52.002;4.686;2022-08-21T02:50:30;10.63;;;4.93;;
59336;SDS011;45115;52.002;4.686;2022-08-21T02:52:59;12.43;;;5.05;;
59336;SDS011;45115;52.002;4.686;2022-08-21T02:55:26;11.30;;;5.15;;
59336;SDS011;45115;52.002;4.686;2022-08-21T02:57:55;11.52;;;5.20;;
59336;SDS011;45115;52.002;4.686;2022-08-21T03:00:24;16.40;;;5.40;;
59336;SDS011;45115;52.002;4.686;2022-08-21T03:02:53;13.60;;;5.18;;
59336;SDS011;45115;52.002;4.686;2022-08-21T03:05:22;11.73;;;5.10;;
59336;SDS011;45115;52.002;4.686;2022-08-21T03:07:50;11.55;;;5.35;;
59336;SDS011;45115;52.002;4.686;2022-08-21T03:10:18;13.48;;;5.03;;
59336;SDS011;45115;52.002;4.686;2022-08-21T03:12:45;10.75;;;4.68;;
59336;SDS011;45115;52.002;4.686;2022-08-21T03:15:13;11.73;;;4.30;;
59336;SDS011;45115;52.002;4.686;2022-08-21T03:17:42;13.05;;;4.68;;
59336;SDS011;45115;52.002;4.686;2022-08-21T03:20:09;11.75;;;4.50;;
59336;SDS011;45115;52.002;4.686;2022-08-21T03:22:37;9.25;;;4.18;;
59336;SDS011;45115;52.002;4.686;2022-08-21T03:25:04;10.40;;;4.68;;
59336;SDS011;45115;52.002;4.686;2022-08-21T03:27:32;11.13;;;4.63;;
59336;SDS011;45115;52.002;4.686;2022-08-21T03:29:59;10.35;;;4.75;;
59336;SDS011;45115;52.002;4.686;2022-08-21T03:32:26;11.60;;;5.00;;
59336;SDS011;45115;52.002;4.686;2022-08-21T03:34:54;11.98;;;4.07;;
59336;SDS011;45115;52.002;4.686;2022-08-21T03:37:20;11.65;;;4.43;;
59336;SDS011;45115;52.002;4.686;2022-08-21T03:39:48;11.45;;;4.28;;
59336;SDS011;45115;52.002;4.686;2022-08-21T03:42:15;11.00;;;4.35;;
59336;SDS011;45115;52.002;4.686;2022-08-21T03:44:42;10.57;;;4.15;;
59336;SDS011;45115;52.002;4.686;2022-08-21T03:47:09;10.32;;;4.35;;
59336;SDS011;45115;52.002;4.686;2022-08-21T03:49:36;11.02;;;4.28;;
59336;SDS011;45115;52.002;4.686;2022-08-21T03:52:03;11.57;;;4.43;;
59336;SDS011;45115;52.002;4.686;2022-08-21T03:54:30;12.77;;;4.57;;
59336;SDS011;45115;52.002;4.686;2022-08-21T03:56:58;12.80;;;4.78;;
59336;SDS011;45115;52.002;4.686;2022-08-21T03:59:25;12.55;;;4.53;;
59336;SDS011;45115;52.002;4.686;2022-08-21T04:01:52;7.30;;;3.90;;
59336;SDS011;45115;52.002;4.686;2022-08-21T04:04:20;10.00;;;4.45;;
59336;SDS011;45115;52.002;4.686;2022-08-21T04:06:47;10.32;;;4.07;;
59336;SDS011;45115;52.002;4.686;2022-08-21T04:09:14;13.90;;;5.25;;
59336;SDS011;45115;52.002;4.686;2022-08-21T04:11:41;9.98;;;4.40;;
59336;SDS011;45115;52.002;4.686;2022-08-21T04:14:09;11.85;;;4.40;;
59336;SDS011;45115;52.002;4.686;2022-08-21T04:16:36;13.20;;;4.60;;
59336;SDS011;45115;52.002;4.686;2022-08-21T04:19:02;13.25;;;5.05;;
59336;SDS011;45115;52.002;4.686;2022-08-21T04:21:29;11.18;;;4.53;;
59336;SDS011;45115;52.002;4.686;2022-08-21T04:23:57;15.30;;;5.20;;
59336;SDS011;45115;52.002;4.686;2022-08-21T04:26:24;12.75;;;5.28;;
59336;SDS011;45115;52.002;4.686;2022-08-21T04:28:51;13.00;;;4.57;;
59336;SDS011;45115;52.002;4.686;2022-08-21T04:31:19;10.35;;;4.70;;
59336;SDS011;45115;52.002;4.686;2022-08-21T04:33:46;11.65;;;4.97;;
59336;SDS011;45115;52.002;4.686;2022-08-21T04:36:12;11.70;;;4.55;;
59336;SDS011;45115;52.002;4.686;2022-08-21T04:38:39;10.48;;;4.32;;
59336;SDS011;45115;52.002;4.686;2022-08-21T04:41:06;12.52;;;4.55;;
59336;SDS011;45115;52.002;4.686;2022-08-21T04:43:32;12.52;;;4.80;;
59336;SDS011;45115;52.002;4.686;2022-08-21T04:45:59;12.35;;;4.65;;
59336;SDS011;45115;52.002;4.686;2022-08-21T04:48:27;13.52;;;4.85;;
59336;SDS011;45115;52.002;4.686;2022-08-21T04:50:54;15.73;;;6.38;;
59336;SDS011;45115;52.002;4.686;2022-08-21T04:53:24;14.65;;;6.72;;
59336;SDS011;45115;52.002;4.686;2022-08-21T04:55:56;11.85;;;5.15;;
59336;SDS011;45115;52.002;4.686;2022-08-21T04:58:27;15.32;;;5.70;;
59336;SDS011;45115;52.002;4.686;2022-08-21T05:00:57;18.55;;;5.88;;
59336;SDS011;45115;52.002;4.686;2022-08-21T05:03:24;15.48;;;6.13;;
59336;SDS011;45115;52.002;4.686;2022-08-21T05:05:53;14.90;;;5.03;;
59336;SDS011;45115;52.002;4.686;2022-08-21T05:08:21;14.55;;;5.68;;
59336;SDS011;45115;52.002;4.686;2022-08-21T05:10:51;12.35;;;5.35;;
59336;SDS011;45115;52.002;4.686;2022-08-21T05:13:18;12.80;;;5.32;;
59336;SDS011;45115;52.002;4.686;2022-08-21T05:15:44;16.83;;;5.93;;
59336;SDS011;45115;52.002;4.686;2022-08-21T05:18:12;18.90;;;5.95;;
59336;SDS011;45115;52.002;4.686;2022-08-21T05:20:38;14.73;;;5.97;;
59336;SDS011;45115;52.002;4.686;2022-08-21T05:23:08;15.15;;;5.60;;
59336;SDS011;45115;52.002;4.686;2022-08-21T05:25:36;12.80;;;5.47;;
59336;SDS011;45115;52.002;4.686;2022-08-21T05:28:03;16.85;;;5.63;;
59336;SDS011;45115;52.002;4.686;2022-08-21T05:30:30;18.30;;;5.88;;
59336;SDS011;45115;52.002;4.686;2022-08-21T05:32:57;16.35;;;5.88;;
59336;SDS011;45115;52.002;4.686;2022-08-21T05:35:25;17.27;;;5.78;;
59336;SDS011;45115;52.002;4.686;2022-08-21T05:37:52;18.20;;;6.68;;
59336;SDS011;45115;52.002;4.686;2022-08-21T05:40:21;19.83;;;6.95;;
59336;SDS011;45115;52.002;4.686;2022-08-21T05:42:47;19.98;;;6.90;;
59336;SDS011;45115;52.002;4.686;2022-08-21T05:45:15;14.13;;;5.72;;
59336;SDS011;45115;52.002;4.686;2022-08-21T05:47:42;16.65;;;6.40;;
59336;SDS011;45115;52.002;4.686;2022-08-21T05:50:08;16.42;;;6.63;;
59336;SDS011;45115;52.002;4.686;2022-08-21T05:52:35;20.42;;;6.63;;
59336;SDS011;45115;52.002;4.686;2022-08-21T05:55:02;13.52;;;5.93;;
59336;SDS011;45115;52.002;4.686;2022-08-21T05:57:30;15.30;;;6.45;;
59336;SDS011;45115;52.002;4.686;2022-08-21T05:59:57;18.90;;;6.85;;
59336;SDS011;45115;52.002;4.686;2022-08-21T06:02:24;17.42;;;5.97;;
59336;SDS011;45115;52.002;4.686;2022-08-21T06:04:51;14.27;;;6.55;;
59336;SDS011;45115;52.002;4.686;2022-08-21T06:07:18;15.90;;;6.22;;
59336;SDS011;45115;52.002;4.686;2022-08-21T06:09:44;15.18;;;6.00;;
59336;SDS011;45115;52.002;4.686;2022-08-21T06:12:11;17.05;;;6.40;;
59336;SDS011;45115;52.002;4.686;2022-08-21T06:14:40;13.38;;;5.50;;
59336;SDS011;45115;52.002;4.686;2022-08-21T06:17:08;16.33;;;6.18;;
59336;SDS011;45115;52.002;4.686;2022-08-21T06:19:37;14.55;;;5.10;;
59336;SDS011;45115;52.002;4.686;2022-08-21T06:22:04;13.65;;;5.30;;
59336;SDS011;45115;52.002;4.686;2022-08-21T06:24:31;15.75;;;5.75;;
59336;SDS011;45115;52.002;4.686;2022-08-21T06:27:03;15.95;;;5.10;;
59336;SDS011;45115;52.002;4.686;2022-08-21T06:29:31;14.98;;;4.78;;
59336;SDS011;45115;52.002;4.686;2022-08-21T06:31:59;14.07;;;5.47;;
59336;SDS011;45115;52.002;4.686;2022-08-21T06:34:26;14.32;;;5.40;;
59336;SDS011;45115;52.002;4.686;2022-08-21T06:36:53;11.68;;;4.90;;
59336;SDS011;45115;52.002;4.686;2022-08-21T06:39:21;16.35;;;5.28;;
59336;SDS011;45115;52.002;4.686;2022-08-21T06:41:47;15.18;;;5.45;;
59336;SDS011;45115;52.002;4.686;2022-08-21T06:44:15;12.85;;;4.95;;
59336;SDS011;45115;52.002;4.686;2022-08-21T06:46:42;15.90;;;5.00;;
59336;SDS011;45115;52.002;4.686;2022-08-21T06:49:10;14.27;;;4.88;;
59336;SDS011;45115;52.002;4.686;2022-08-21T06:51:38;14.68;;;4.63;;
59336;SDS011;45115;52.002;4.686;2022-08-21T06:54:04;13.80;;;5.00;;
59336;SDS011;45115;52.002;4.686;2022-08-21T06:56:31;14.63;;;4.85;;
59336;SDS011;45115;52.002;4.686;2022-08-21T06:59:00;11.73;;;5.15;;
59336;SDS011;45115;52.002;4.686;2022-08-21T07:01:26;10.30;;;5.00;;
59336;SDS011;45115;52.002;4.686;2022-08-21T07:03:53;14.25;;;5.25;;
59336;SDS011;45115;52.002;4.686;2022-08-21T07:06:21;14.43;;;4.78;;
59336;SDS011;45115;52.002;4.686;2022-08-21T07:08:48;13.73;;;4.70;;
59336;SDS011;45115;52.002;4.686;2022-08-21T07:11:17;12.90;;;4.53;;
59336;SDS011;45115;52.002;4.686;2022-08-21T07:13:45;11.20;;;4.50;;
59336;SDS011;45115;52.002;4.686;2022-08-21T07:16:12;10.52;;;4.65;;
59336;SDS011;45115;52.002;4.686;2022-08-21T07:18:39;11.00;;;4.50;;
59336;SDS011;45115;52.002;4.686;2022-08-21T07:21:05;11.95;;;4.47;;
59336;SDS011;45115;52.002;4.686;2022-08-21T07:23:36;10.48;;;4.10;;
59336;SDS011;45115;52.002;4.686;2022-08-21T07:26:06;11.80;;;4.63;;
59336;SDS011;45115;52.002;4.686;2022-08-21T07:28:32;12.23;;;4.20;;
59336;SDS011;45115;52.002;4.686;2022-08-21T07:31:00;13.07;;;4.70;;
59336;SDS011;45115;52.002;4.686;2022-08-21T07:33:29;11.20;;;4.20;;
59336;SDS011;45115;52.002;4.686;2022-08-21T07:35:57;12.02;;;4.20;;
59336;SDS011;45115;52.002;4.686;2022-08-21T07:38:24;10.57;;;4.60;;
59336;SDS011;45115;52.002;4.686;2022-08-21T07:40:54;9.25;;;3.90;;
59336;SDS011;45115;52.002;4.686;2022-08-21T07:43:24;10.52;;;4.75;;
59336;SDS011;45115;52.002;4.686;2022-08-21T07:45:51;11.18;;;4.10;;
59336;SDS011;45115;52.002;4.686;2022-08-21T07:48:19;10.20;;;4.25;;
59336;SDS011;45115;52.002;4.686;2022-08-21T07:50:45;7.65;;;3.60;;
59336;SDS011;45115;52.002;4.686;2022-08-21T07:53:13;9.90;;;3.72;;
59336;SDS011;45115;52.002;4.686;2022-08-21T07:55:40;7.20;;;3.55;;
59336;SDS011;45115;52.002;4.686;2022-08-21T07:58:07;11.40;;;4.00;;
59336;SDS011;45115;52.002;4.686;2022-08-21T08:00:34;8.50;;;4.07;;
59336;SDS011;45115;52.002;4.686;2022-08-21T08:03:02;9.77;;;3.92;;
59336;SDS011;45115;52.002;4.686;2022-08-21T08:05:29;10.13;;;4.25;;
59336;SDS011;45115;52.002;4.686;2022-08-21T08:07:57;9.73;;;3.63;;
59336;SDS011;45115;52.002;4.686;2022-08-21T08:10:24;7.78;;;3.65;;
59336;SDS011;45115;52.002;4.686;2022-08-21T08:12:51;11.07;;;3.95;;
59336;SDS011;45115;52.002;4.686;2022-08-21T08:15:21;8.05;;;3.13;;
59336;SDS011;45115;52.002;4.686;2022-08-21T08:20:16;11.10;;;3.90;;
59336;SDS011;45115;52.002;4.686;2022-08-21T08:22:45;7.85;;;3.33;;
59336;SDS011;45115;52.002;4.686;2022-08-21T08:25:12;8.63;;;3.45;;
59336;SDS011;45115;52.002;4.686;2022-08-21T08:27:40;11.48;;;3.97;;
59336;SDS011;45115;52.002;4.686;2022-08-21T08:30:09;9.13;;;3.40;;
59336;SDS011;45115;52.002;4.686;2022-08-21T08:32:40;11.77;;;3.80;;
59336;SDS011;45115;52.002;4.686;2022-08-21T08:35:07;8.55;;;3.42;;
59336;SDS011;45115;52.002;4.686;2022-08-21T08:37:35;11.50;;;3.30;;
59336;SDS011;45115;52.002;4.686;2022-08-21T08:40:05;8.85;;;3.05;;
59336;SDS011;45115;52.002;4.686;2022-08-21T08:42:33;11.70;;;3.50;;
59336;SDS011;45115;52.002;4.686;2022-08-21T08:45:03;8.32;;;3.20;;
59336;SDS011;45115;52.002;4.686;2022-08-21T08:47:32;9.45;;;3.95;;
59336;SDS011;45115;52.002;4.686;2022-08-21T08:52:32;11.57;;;3.58;;
59336;SDS011;45115;52.002;4.686;2022-08-21T08:55:01;9.32;;;3.10;;
59336;SDS011;45115;52.002;4.686;2022-08-21T08:57:30;6.85;;;2.72;;
59336;SDS011;45115;52.002;4.686;2022-08-21T09:00:00;10.35;;;3.80;;
59336;SDS011;45115;52.002;4.686;2022-08-21T09:02:31;8.15;;;3.38;;
59336;SDS011;45115;52.002;4.686;2022-08-21T09:05:00;9.50;;;3.33;;
59336;SDS011;45115;52.002;4.686;2022-08-21T09:10:16;6.47;;;3.10;;
59336;SDS011;45115;52.002;4.686;2022-08-21T09:12:49;6.35;;;3.20;;
59336;SDS011;45115;52.002;4.686;2022-08-21T09:15:24;10.57;;;3.55;;
59336;SDS011;45115;52.002;4.686;2022-08-21T09:18:00;10.90;;;3.72;;
59336;SDS011;45115;52.002;4.686;2022-08-21T09:20:41;10.00;;;3.58;;
59336;SDS011;45115;52.002;4.686;2022-08-21T09:23:19;8.90;;;3.40;;
59336;SDS011;45115;52.002;4.686;2022-08-21T09:25:56;8.40;;;3.00;;
59336;SDS011;45115;52.002;4.686;2022-08-21T09:28:31;7.05;;;3.00;;
59336;SDS011;45115;52.002;4.686;2022-08-21T09:30:58;11.30;;;4.00;;
59336;SDS011;45115;52.002;4.686;2022-08-21T09:33:30;8.98;;;4.07;;
59336;SDS011;45115;52.002;4.686;2022-08-21T09:35:57;6.95;;;4.07;;
59336;SDS011;45115;52.002;4.686;2022-08-21T09:38:28;8.43;;;4.40;;
59336;SDS011;45115;52.002;4.686;2022-08-21T09:40:59;8.75;;;3.80;;
59336;SDS011;45115;52.002;4.686;2022-08-21T09:43:29;7.88;;;3.10;;
59336;SDS011;45115;52.002;4.686;2022-08-21T09:46:06;7.03;;;3.85;;
59336;SDS011;45115;52.002;4.686;2022-08-21T09:48:39;10.03;;;3.53;;
59336;SDS011;45115;52.002;4.686;2022-08-21T09:51:09;9.23;;;4.82;;
59336;SDS011;45115;52.002;4.686;2022-08-21T09:53:41;10.30;;;4.30;;
59336;SDS011;45115;52.002;4.686;2022-08-21T09:56:17;6.72;;;3.67;;
59336;SDS011;45115;52.002;4.686;2022-08-21T09:59:12;8.95;;;3.58;;
59336;SDS011;45115;52.002;4.686;2022-08-21T10:01:45;8.48;;;4.18;;
59336;SDS011;45115;52.002;4.686;2022-08-21T10:04:13;7.80;;;3.60;;
59336;SDS011;45115;52.002;4.686;2022-08-21T10:06:40;8.15;;;3.70;;
59336;SDS011;45115;52.002;4.686;2022-08-21T10:09:09;8.63;;;4.00;;
59336;SDS011;45115;52.002;4.686;2022-08-21T10:11:38;8.77;;;2.80;;
59336;SDS011;45115;52.002;4.686;2022-08-21T10:14:12;7.38;;;3.00;;
59336;SDS011;45115;52.002;4.686;2022-08-21T10:16:49;9.55;;;3.05;;
59336;SDS011;45115;52.002;4.686;2022-08-21T10:19:26;6.60;;;3.20;;
59336;SDS011;45115;52.002;4.686;2022-08-21T10:22:03;9.95;;;3.25;;
59336;SDS011;45115;52.002;4.686;2022-08-21T10:24:43;5.53;;;2.72;;
59336;SDS011;45115;52.002;4.686;2022-08-21T10:27:20;8.27;;;3.05;;
59336;SDS011;45115;52.002;4.686;2022-08-21T10:29:54;10.27;;;3.58;;
59336;SDS011;45115;52.002;4.686;2022-08-21T10:32:26;9.50;;;3.20;;
59336;SDS011;45115;52.002;4.686;2022-08-21T10:37:37;8.05;;;3.20;;
59336;SDS011;45115;52.002;4.686;2022-08-21T10:40:15;13.00;;;3.60;;
59336;SDS011;45115;52.002;4.686;2022-08-21T10:42:54;6.38;;;3.40;;
59336;SDS011;45115;52.002;4.686;2022-08-21T10:45:36;9.77;;;3.47;;
59336;SDS011;45115;52.002;4.686;2022-08-21T10:48:14;7.68;;;2.80;;
59336;SDS011;45115;52.002;4.686;2022-08-21T10:50:48;7.88;;;2.97;;
59336;SDS011;45115;52.002;4.686;2022-08-21T10:53:41;9.23;;;3.10;;
59336;SDS011;45115;52.002;4.686;2022-08-21T10:56:19;9.57;;;3.33;;
59336;SDS011;45115;52.002;4.686;2022-08-21T10:58:51;7.13;;;2.95;;
59336;SDS011;45115;52.002;4.686;2022-08-21T11:01:31;6.20;;;2.90;;
59336;SDS011;45115;52.002;4.686;2022-08-21T11:04:04;7.35;;;2.65;;
59336;SDS011;45115;52.002;4.686;2022-08-21T11:06:39;5.57;;;2.92;;
59336;SDS011;45115;52.002;4.686;2022-08-21T11:09:11;10.63;;;5.93;;
59336;SDS011;45115;52.002;4.686;2022-08-21T11:11:44;8.32;;;3.28;;
59336;SDS011;45115;52.002;4.686;2022-08-21T11:14:17;7.30;;;3.08;;
59336;SDS011;45115;52.002;4.686;2022-08-21T11:16:52;5.40;;;2.70;;
59336;SDS011;45115;52.002;4.686;2022-08-21T11:19:24;6.25;;;2.90;;
59336;SDS011;45115;52.002;4.686;2022-08-21T11:21:58;5.85;;;2.83;;
59336;SDS011;45115;52.002;4.686;2022-08-21T11:24:32;8.50;;;3.00;;
59336;SDS011;45115;52.002;4.686;2022-08-21T11:27:09;4.50;;;2.65;;
59336;SDS011;45115;52.002;4.686;2022-08-21T11:29:45;7.20;;;2.63;;
59336;SDS011;45115;52.002;4.686;2022-08-21T11:32:34;9.88;;;3.08;;
59336;SDS011;45115;52.002;4.686;2022-08-21T11:35:14;7.80;;;2.50;;
59336;SDS011;45115;52.002;4.686;2022-08-21T11:37:55;7.68;;;3.00;;
59336;SDS011;45115;52.002;4.686;2022-08-21T11:40:37;5.82;;;2.60;;
59336;SDS011;45115;52.002;4.686;2022-08-21T11:43:16;4.95;;;2.78;;
59336;SDS011;45115;52.002;4.686;2022-08-21T11:45:49;6.93;;;2.63;;
59336;SDS011;45115;52.002;4.686;2022-08-21T11:48:22;5.45;;;2.40;;
59336;SDS011;45115;52.002;4.686;2022-08-21T11:51:04;6.75;;;2.55;;
59336;SDS011;45115;52.002;4.686;2022-08-21T11:53:38;8.23;;;2.97;;
59336;SDS011;45115;52.002;4.686;2022-08-21T11:56:17;6.82;;;3.00;;
59336;SDS011;45115;52.002;4.686;2022-08-21T11:58:50;11.57;;;2.50;;
59336;SDS011;45115;52.002;4.686;2022-08-21T12:01:21;4.80;;;2.80;;
59336;SDS011;45115;52.002;4.686;2022-08-21T12:03:52;8.25;;;3.03;;
59336;SDS011;45115;52.002;4.686;2022-08-21T12:06:29;5.85;;;2.72;;
59336;SDS011;45115;52.002;4.686;2022-08-21T12:08:59;7.07;;;2.50;;
59336;SDS011;45115;52.002;4.686;2022-08-21T12:11:27;4.53;;;2.45;;
59336;SDS011;45115;52.002;4.686;2022-08-21T12:13:56;6.25;;;2.60;;
59336;SDS011;45115;52.002;4.686;2022-08-21T12:16:29;6.38;;;2.50;;
59336;SDS011;45115;52.002;4.686;2022-08-21T12:19:04;4.25;;;2.78;;
59336;SDS011;45115;52.002;4.686;2022-08-21T12:21:32;7.03;;;2.40;;
59336;SDS011;45115;52.002;4.686;2022-08-21T12:24:01;5.18;;;2.72;;
59336;SDS011;45115;52.002;4.686;2022-08-21T12:26:32;6.47;;;2.60;;
59336;SDS011;45115;52.002;4.686;2022-08-21T12:29:12;4.28;;;2.70;;
59336;SDS011;45115;52.002;4.686;2022-08-21T12:31:48;7.70;;;2.17;;
59336;SDS011;45115;52.002;4.686;2022-08-21T12:34:25;5.43;;;2.53;;
59336;SDS011;45115;52.002;4.686;2022-08-21T12:36:58;7.72;;;2.90;;
59336;SDS011;45115;52.002;4.686;2022-08-21T12:39:28;7.13;;;2.90;;
59336;SDS011;45115;52.002;4.686;2022-08-21T12:41:59;5.88;;;2.83;;
59336;SDS011;45115;52.002;4.686;2022-08-21T12:44:34;6.18;;;2.83;;
59336;SDS011;45115;52.002;4.686;2022-08-21T12:47:12;5.32;;;2.50;;
59336;SDS011;45115;52.002;4.686;2022-08-21T12:49:45;6.28;;;2.95;;
59336;SDS011;45115;52.002;4.686;2022-08-21T12:52:20;5.22;;;2.78;;
59336;SDS011;45115;52.002;4.686;2022-08-21T12:57:20;8.18;;;2.40;;
59336;SDS011;45115;52.002;4.686;2022-08-21T12:59:53;4.80;;;2.42;;
59336;SDS011;45115;52.002;4.686;2022-08-21T13:02:22;5.00;;;2.50;;
59336;SDS011;45115;52.002;4.686;2022-08-21T13:04:51;6.97;;;2.60;;
59336;SDS011;45115;52.002;4.686;2022-08-21T13:07:22;7.00;;;2.65;;
59336;SDS011;45115;52.002;4.686;2022-08-21T13:09:53;6.60;;;2.70;;
59336;SDS011;45115;52.002;4.686;2022-08-21T13:12:23;5.90;;;2.67;;
59336;SDS011;45115;52.002;4.686;2022-08-21T13:14:50;6.28;;;3.10;;
59336;SDS011;45115;52.002;4.686;2022-08-21T13:17:22;4.68;;;2.40;;
59336;SDS011;45115;52.002;4.686;2022-08-21T13:19:55;4.85;;;2.60;;
59336;SDS011;45115;52.002;4.686;2022-08-21T13:22:23;3.17;;;2.45;;
59336;SDS011;45115;52.002;4.686;2022-08-21T13:24:51;4.70;;;2.28;;
59336;SDS011;45115;52.002;4.686;2022-08-21T13:27:20;6.82;;;2.78;;
59336;SDS011;45115;52.002;4.686;2022-08-21T13:30:04;5.38;;;2.28;;
59336;SDS011;45115;52.002;4.686;2022-08-21T13:32:40;7.43;;;2.33;;
59336;SDS011;45115;52.002;4.686;2022-08-21T13:35:12;5.22;;;2.53;;
59336;SDS011;45115;52.002;4.686;2022-08-21T13:37:42;5.47;;;2.53;;
59336;SDS011;45115;52.002;4.686;2022-08-21T13:40:14;7.97;;;2.60;;
59336;SDS011;45115;52.002;4.686;2022-08-21T13:42:46;5.30;;;2.78;;
59336;SDS011;45115;52.002;4.686;2022-08-21T13:45:17;6.13;;;2.50;;
59336;SDS011;45115;52.002;4.686;2022-08-21T13:47:48;6.65;;;2.60;;
59336;SDS011;45115;52.002;4.686;2022-08-21T13:50:15;8.20;;;2.72;;
59336;SDS011;45115;52.002;4.686;2022-08-21T13:52:48;5.55;;;2.47;;
59336;SDS011;45115;52.002;4.686;2022-08-21T13:55:20;6.07;;;3.03;;
59336;SDS011;45115;52.002;4.686;2022-08-21T13:57:47;7.82;;;2.70;;
59336;SDS011;45115;52.002;4.686;2022-08-21T14:00:27;6.93;;;2.97;;
59336;SDS011;45115;52.002;4.686;2022-08-21T14:03:00;6.63;;;2.60;;
59336;SDS011;45115;52.002;4.686;2022-08-21T14:05:30;4.30;;;2.45;;
59336;SDS011;45115;52.002;4.686;2022-08-21T14:08:01;9.82;;;3.22;;
59336;SDS011;45115;52.002;4.686;2022-08-21T14:10:32;7.07;;;2.75;;
59336;SDS011;45115;52.002;4.686;2022-08-21T14:13:03;4.80;;;2.42;;
59336;SDS011;45115;52.002;4.686;2022-08-21T14:15:34;4.65;;;2.42;;
59336;SDS011;45115;52.002;4.686;2022-08-21T14:18:08;8.88;;;3.13;;
59336;SDS011;45115;52.002;4.686;2022-08-21T14:20:39;10.38;;;2.80;;
59336;SDS011;45115;52.002;4.686;2022-08-21T14:23:05;6.50;;;2.50;;
59336;SDS011;45115;52.002;4.686;2022-08-21T14:25:36;4.80;;;2.65;;
59336;SDS011;45115;52.002;4.686;2022-08-21T14:28:18;7.07;;;2.53;;
59336;SDS011;45115;52.002;4.686;2022-08-21T14:30:52;4.15;;;2.20;;
59336;SDS011;45115;52.002;4.686;2022-08-21T14:33:21;2.60;;;2.10;;
59336;SDS011;45115;52.002;4.686;2022-08-21T14:35:51;7.15;;;2.47;;
59336;SDS011;45115;52.002;4.686;2022-08-21T14:38:19;6.78;;;2.58;;
59336;SDS011;45115;52.002;4.686;2022-08-21T14:40:47;5.35;;;2.38;;
59336;SDS011;45115;52.002;4.686;2022-08-21T14:43:16;5.47;;;2.05;;
59336;SDS011;45115;52.002;4.686;2022-08-21T14:45:44;6.13;;;2.40;;
59336;SDS011;45115;52.002;4.686;2022-08-21T14:48:12;4.78;;;2.47;;
59336;SDS011;45115;52.002;4.686;2022-08-21T14:50:39;4.40;;;2.22;;
59336;SDS011;45115;52.002;4.686;2022-08-21T14:53:06;6.25;;;2.50;;
59336;SDS011;45115;52.002;4.686;2022-08-21T14:55:32;5.10;;;2.55;;
59336;SDS011;45115;52.002;4.686;2022-08-21T14:58:21;5.65;;;2.30;;
59336;SDS011;45115;52.002;4.686;2022-08-21T15:00:49;6.63;;;2.50;;
59336;SDS011;45115;52.002;4.686;2022-08-21T15:03:18;7.13;;;3.35;;
59336;SDS011;45115;52.002;4.686;2022-08-21T15:05:48;4.88;;;3.08;;
59336;SDS011;45115;52.002;4.686;2022-08-21T15:08:15;8.52;;;2.70;;
59336;SDS011;45115;52.002;4.686;2022-08-21T15:10:42;4.90;;;2.38;;
59336;SDS011;45115;52.002;4.686;2022-08-21T15:13:09;4.53;;;2.60;;